createdAt,value
2023-11-27T00:00:37.640Z,67.61
2023-11-27T00:03:42.340Z,67.58
2023-11-27T00:06:44.052Z,67.26
2023-11-27T00:09:45.669Z,67.34
2023-11-27T00:12:49.349Z,67.33
2023-11-27T00:15:51.540Z,67.45
2023-11-27T00:18:54.036Z,67.29
2023-11-27T00:21:55.778Z,67.55
2023-11-27T00:24:57.590Z,67.37
2023-11-27T00:27:59.236Z,67.71
2023-11-27T00:31:00.921Z,67.61
2023-11-27T00:34:02.713Z,67.49
2023-11-27T00:37:06.633Z,67.44
2023-11-27T00:40:08.697Z,67.53
2023-11-27T00:43:10.863Z,67.38
2023-11-27T00:46:13.852Z,67.40
2023-11-27T00:49:15.596Z,67.18
2023-11-27T00:52:17.288Z,67.89
2023-11-27T00:55:20.121Z,67.53
2023-11-27T00:58:21.734Z,67.52
2023-11-27T01:01:23.431Z,67.74
2023-11-27T01:04:25.175Z,67.50
2023-11-27T01:07:26.816Z,67.48
2023-11-27T01:10:28.524Z,67.47
2023-11-27T01:13:30.132Z,67.70
2023-11-27T01:16:31.741Z,67.51
2023-11-27T01:19:33.918Z,67.48
2023-11-27T01:22:36.190Z,67.36
2023-11-27T01:25:37.737Z,67.58
2023-11-27T01:28:39.334Z,67.37
2023-11-27T01:31:41.396Z,67.28
2023-11-27T01:34:43.019Z,67.54
2023-11-27T01:37:44.582Z,67.59
2023-11-27T01:40:47.107Z,67.37
2023-11-27T01:43:49.604Z,67.55
2023-11-27T01:46:51.316Z,67.25
2023-11-27T01:49:53.792Z,67.30
2023-11-27T01:52:55.415Z,67.33
2023-11-27T01:55:57.016Z,67.60
2023-11-27T01:59:00.202Z,67.56
2023-11-27T02:02:02.341Z,67.45
2023-11-27T02:05:05.853Z,67.42
2023-11-27T02:08:07.426Z,67.49
2023-11-27T02:11:09.106Z,67.57
2023-11-27T02:14:10.664Z,67.60
2023-11-27T02:17:12.292Z,67.57
2023-11-27T02:20:13.901Z,67.54
2023-11-27T02:23:17.050Z,67.34
2023-11-27T02:26:18.821Z,67.40
2023-11-27T02:29:20.495Z,67.48
2023-11-27T02:32:22.600Z,67.54
2023-11-27T02:35:24.286Z,67.36
2023-11-27T02:38:25.920Z,67.31
2023-11-27T02:41:27.942Z,67.41
2023-11-27T02:44:30.342Z,67.60
2023-11-27T02:47:32.728Z,66.84
2023-11-27T02:50:34.321Z,67.18
2023-11-27T02:53:35.824Z,66.69
2023-11-27T02:56:37.870Z,67.09
2023-11-27T02:59:39.739Z,67.06
2023-11-27T03:02:41.382Z,66.54
2023-11-27T03:05:43.373Z,66.60
2023-11-27T03:08:46.772Z,66.83
2023-11-27T03:11:48.529Z,66.70
2023-11-27T03:14:50.573Z,66.80
2023-11-27T03:17:52.856Z,66.91
2023-11-27T03:20:54.424Z,66.65
2023-11-27T03:23:56.630Z,66.79
2023-11-27T03:26:58.388Z,67.04
2023-11-27T03:30:03.338Z,66.59
2023-11-27T03:33:07.178Z,66.74
2023-11-27T03:36:09.127Z,66.77
2023-11-27T03:39:12.404Z,66.71
2023-11-27T03:42:13.972Z,66.48
2023-11-27T03:45:16.540Z,66.55
2023-11-27T03:48:18.163Z,66.57
2023-11-27T03:51:19.816Z,66.51
2023-11-27T03:54:21.375Z,66.52
2023-11-27T03:57:23.024Z,66.26
2023-11-27T04:00:25.909Z,66.42
2023-11-27T04:03:27.522Z,66.41
2023-11-27T04:06:32.937Z,66.41
2023-11-27T04:09:34.677Z,66.75
2023-11-27T04:12:36.284Z,66.49
2023-11-27T04:15:38.173Z,66.40
2023-11-27T04:18:39.822Z,66.41
2023-11-27T04:21:42.112Z,66.49
2023-11-27T04:24:44.179Z,66.34
2023-11-27T04:27:46.339Z,66.30
2023-11-27T04:30:47.943Z,66.51
2023-11-27T04:33:49.670Z,66.45
2023-11-27T04:36:51.320Z,66.56
2023-11-27T04:39:53.073Z,66.46
2023-11-27T04:42:54.815Z,66.62
2023-11-27T04:45:56.707Z,66.56
2023-11-27T04:48:58.420Z,66.45
2023-11-27T04:51:59.993Z,66.39
2023-11-27T04:55:04.082Z,66.35
2023-11-27T04:58:05.770Z,66.37
2023-11-27T05:01:07.492Z,66.30
2023-11-27T05:04:09.227Z,66.35
2023-11-27T05:07:11.310Z,66.20
2023-11-27T05:10:13.406Z,66.29
2023-11-27T05:13:15.173Z,66.46
2023-11-27T05:16:18.640Z,66.44
2023-11-27T05:19:20.354Z,66.54
2023-11-27T05:22:22.213Z,66.48
2023-11-27T05:25:24.151Z,66.47
2023-11-27T05:28:25.719Z,66.51
2023-11-27T05:31:27.435Z,66.31
2023-11-27T05:34:29.161Z,66.08
2023-11-27T05:37:30.755Z,66.32
2023-11-27T05:40:32.413Z,66.32
2023-11-27T05:43:34.676Z,66.46
2023-11-27T05:46:36.423Z,66.40
2023-11-27T05:49:38.939Z,66.38
2023-11-27T05:52:40.552Z,66.63
2023-11-27T05:55:42.334Z,66.51
2023-11-27T05:58:44.191Z,66.42
2023-11-27T06:01:45.781Z,66.37
2023-11-27T06:04:47.503Z,66.06
2023-11-27T06:07:49.507Z,66.47
2023-11-27T06:10:51.061Z,66.77
2023-11-27T06:13:52.709Z,66.58
2023-11-27T06:16:54.433Z,66.78
2023-11-27T06:19:56.054Z,66.62
2023-11-27T06:22:58.394Z,66.62
2023-11-27T06:26:00.245Z,67.09
2023-11-27T06:29:01.844Z,66.97
2023-11-27T06:32:03.612Z,67.05
2023-11-27T06:35:05.660Z,67.05
2023-11-27T06:38:07.419Z,67.13
2023-11-27T06:41:09.009Z,67.17
2023-11-27T06:44:13.615Z,66.80
2023-11-27T06:47:15.289Z,67.16
2023-11-27T06:50:19.815Z,67.15
2023-11-27T06:53:21.421Z,67.16
2023-11-27T06:56:23.081Z,67.09
2023-11-27T06:59:24.701Z,67.18
2023-11-27T07:02:27.408Z,67.20
2023-11-27T07:05:29.014Z,67.30
2023-11-27T07:08:30.581Z,67.35
2023-11-27T07:11:33.718Z,67.35
2023-11-27T07:14:35.290Z,67.31
2023-11-27T07:17:38.420Z,67.45
2023-11-27T07:20:41.431Z,67.29
2023-11-27T07:23:45.648Z,67.23
2023-11-27T07:26:47.187Z,67.32
2023-11-27T07:29:48.716Z,67.30
2023-11-27T07:32:50.340Z,67.55
2023-11-27T07:35:51.968Z,67.61
2023-11-27T07:38:54.996Z,67.54
2023-11-27T07:41:56.867Z,67.45
2023-11-27T07:44:59.628Z,67.42
2023-11-27T07:48:01.248Z,67.31
2023-11-27T07:51:09.807Z,67.66
2023-11-27T07:54:11.677Z,67.70
2023-11-27T07:57:13.246Z,67.55
2023-11-27T08:00:17.566Z,67.65
2023-11-27T08:03:19.201Z,67.57
2023-11-27T08:06:21.337Z,67.75
2023-11-27T08:09:23.046Z,67.60
2023-11-27T08:12:24.600Z,67.85
2023-11-27T08:15:26.514Z,67.67
2023-11-27T08:18:28.082Z,67.67
2023-11-27T08:21:29.658Z,67.77
2023-11-27T08:24:35.153Z,67.61
2023-11-27T08:27:39.917Z,67.66
2023-11-27T08:30:43.152Z,67.59
2023-11-27T08:33:44.878Z,67.69
2023-11-27T08:36:46.778Z,67.63
2023-11-27T08:39:48.689Z,67.36
2023-11-27T08:42:50.227Z,67.56
2023-11-27T08:45:52.096Z,67.21
2023-11-27T08:48:53.697Z,67.27
2023-11-27T08:51:55.602Z,67.39
2023-11-27T08:54:59.010Z,67.47
2023-11-27T08:58:04.646Z,67.62
2023-11-27T09:01:07.114Z,67.62
2023-11-27T09:04:11.011Z,67.62
2023-11-27T09:07:16.124Z,67.64
2023-11-27T09:10:18.267Z,67.72
2023-11-27T09:13:20.257Z,67.97
2023-11-27T09:16:22.139Z,67.48
2023-11-27T09:19:23.814Z,67.71
2023-11-27T09:22:25.633Z,67.49
2023-11-27T09:25:27.502Z,67.55
2023-11-27T09:28:29.136Z,67.50
2023-11-27T09:31:30.827Z,67.39
2023-11-27T09:34:32.621Z,67.34
2023-11-27T09:37:36.671Z,67.20
2023-11-27T09:40:41.937Z,66.97
2023-11-27T09:43:43.542Z,67.33
2023-11-27T09:46:47.648Z,67.01
2023-11-27T09:49:52.467Z,66.92
2023-11-27T09:53:02.936Z,66.95
2023-11-27T09:56:05.698Z,67.12
2023-11-27T09:59:09.310Z,66.82
2023-11-27T10:02:11.686Z,66.89
2023-11-27T10:05:13.549Z,66.90
2023-11-27T10:08:17.662Z,66.74
2023-11-27T10:11:20.437Z,66.95
2023-11-27T10:14:36.859Z,66.91
2023-11-27T10:17:42.928Z,66.82
2023-11-27T10:20:44.625Z,66.72
2023-11-27T10:23:46.201Z,66.79
2023-11-27T10:26:47.696Z,66.55
2023-11-27T10:29:49.205Z,66.60
2023-11-27T10:32:50.783Z,66.61
2023-11-27T10:35:54.372Z,66.49
2023-11-27T10:39:17.367Z,66.53
2023-11-27T10:42:19.456Z,66.48
2023-11-27T10:45:24.531Z,66.45
2023-11-27T10:48:37.411Z,66.45
2023-11-27T10:51:46.210Z,66.49
2023-11-27T10:54:50.377Z,66.32
2023-11-27T10:57:51.955Z,66.55
2023-11-27T11:00:58.177Z,66.36
2023-11-27T11:04:10.479Z,66.31
2023-11-27T11:07:20.814Z,66.22
2023-11-27T11:10:27.610Z,66.33
2023-11-27T11:13:31.182Z,66.29
2023-11-27T11:16:41.199Z,66.15
2023-11-27T11:19:55.783Z,66.11
2023-11-27T11:23:37.998Z,66.11
2023-11-27T11:26:45.268Z,66.03
2023-11-27T11:29:52.567Z,66.00
2023-11-27T11:32:54.086Z,66.19
2023-11-27T11:35:55.579Z,65.78
2023-11-27T11:38:57.590Z,66.06
2023-11-27T11:42:04.879Z,65.79
2023-11-27T11:45:18.117Z,65.92
2023-11-27T11:48:20.361Z,65.91
2023-11-27T11:51:24.930Z,65.80
2023-11-27T11:54:55.938Z,65.80
2023-11-27T11:58:29.527Z,65.93
2023-11-27T12:01:33.861Z,65.47
2023-11-27T12:04:37.622Z,65.80
2023-11-27T12:07:39.338Z,65.83
2023-11-27T12:10:40.882Z,65.98
2023-11-27T12:13:44.625Z,65.93
2023-11-27T12:16:48.466Z,65.78
2023-11-27T12:19:51.472Z,65.90
2023-11-27T12:22:53.200Z,65.78
2023-11-27T12:25:54.777Z,65.84
2023-11-27T12:28:56.550Z,65.95
2023-11-27T12:31:58.098Z,65.75
2023-11-27T12:35:00.216Z,65.86
2023-11-27T12:38:04.880Z,66.00
2023-11-27T12:41:08.744Z,66.22
2023-11-27T12:44:16.900Z,66.17
2023-11-27T12:47:20.521Z,66.43
2023-11-27T12:50:29.957Z,66.54
2023-11-27T12:53:34.681Z,66.63
2023-11-27T12:56:36.844Z,66.82
2023-11-27T12:59:43.624Z,66.74
2023-11-27T13:02:45.328Z,66.40
2023-11-27T13:05:54.409Z,66.56
2023-11-27T13:08:56.372Z,66.65
2023-11-27T13:11:58.037Z,66.67
2023-11-27T13:14:59.719Z,67.00
2023-11-27T13:18:03.730Z,66.56
2023-11-27T13:21:09.850Z,66.72
2023-11-27T13:24:15.027Z,66.54
2023-11-27T13:27:17.854Z,66.43
2023-11-27T13:30:28.150Z,66.52
2023-11-27T13:33:29.985Z,66.47
2023-11-27T13:36:31.592Z,66.37
2023-11-27T13:39:37.846Z,66.37
2023-11-27T13:42:39.399Z,66.23
2023-11-27T13:45:46.838Z,66.21
2023-11-27T13:48:49.226Z,66.01
2023-11-27T13:51:55.151Z,66.08
2023-11-27T13:54:59.084Z,66.06
2023-11-27T13:58:00.681Z,66.01
2023-11-27T14:01:06.063Z,65.92
2023-11-27T14:04:26.520Z,66.12
2023-11-27T14:07:28.327Z,65.84
2023-11-27T14:10:49.989Z,65.72
2023-11-27T14:13:51.676Z,66.00
2023-11-27T14:17:06.418Z,65.65
2023-11-27T14:20:27.887Z,65.63
2023-11-27T14:23:38.570Z,65.31
2023-11-27T14:26:52.234Z,65.53
2023-11-27T14:29:54.404Z,65.42
2023-11-27T14:32:56.076Z,65.50
2023-11-27T14:35:57.664Z,65.66
2023-11-27T14:39:00.033Z,65.68
2023-11-27T14:42:01.606Z,65.15
2023-11-27T14:45:04.002Z,65.34
2023-11-27T14:48:05.766Z,65.17
2023-11-27T14:51:07.677Z,65.11
2023-11-27T14:54:12.105Z,65.07
2023-11-27T14:57:14.228Z,64.94
2023-11-27T15:00:27.845Z,65.03
2023-11-27T15:03:30.552Z,65.06
2023-11-27T15:06:34.305Z,64.70
2023-11-27T15:09:37.255Z,64.84
2023-11-27T15:12:48.677Z,65.05
2023-11-27T15:15:54.563Z,64.93
2023-11-27T15:18:56.432Z,65.03
2023-11-27T15:21:58.540Z,64.89
2023-11-27T15:25:02.492Z,64.94
2023-11-27T15:28:06.265Z,64.88
2023-11-27T15:31:09.075Z,65.12
2023-11-27T15:34:10.851Z,65.38
2023-11-27T15:37:12.589Z,65.33
2023-11-27T15:40:21.571Z,65.42
2023-11-27T15:43:24.015Z,65.38
2023-11-27T15:46:26.231Z,65.72
2023-11-27T15:49:28.726Z,65.77
2023-11-27T15:52:32.650Z,65.73
2023-11-27T15:55:35.180Z,66.01
2023-11-27T15:58:37.666Z,66.03
2023-11-27T16:01:39.382Z,65.88
2023-11-27T16:04:41.182Z,66.02
2023-11-27T16:07:43.086Z,66.00
2023-11-27T16:10:49.530Z,66.12
2023-11-27T16:13:54.699Z,66.02
2023-11-27T16:16:58.515Z,66.17
2023-11-27T16:20:00.666Z,66.06
2023-11-27T16:23:03.694Z,66.08
2023-11-27T16:26:08.729Z,66.30
2023-11-27T16:29:11.803Z,66.30
2023-11-27T16:32:13.683Z,66.27
2023-11-27T16:35:24.771Z,66.33
2023-11-27T16:38:27.832Z,66.23
2023-11-27T16:41:29.474Z,66.39
2023-11-27T16:44:31.141Z,66.30
2023-11-27T16:50:34.737Z,66.65
2023-11-27T16:53:36.587Z,66.61
2023-11-27T16:56:38.856Z,66.70
2023-11-27T16:59:41.669Z,66.75
2023-11-27T17:02:43.471Z,66.43
2023-11-27T17:05:47.261Z,66.86
2023-11-27T17:08:49.459Z,66.85
2023-11-27T17:11:51.055Z,66.90
2023-11-27T17:14:52.624Z,66.86
2023-11-27T17:17:54.956Z,66.71
2023-11-27T17:20:56.720Z,67.01
2023-11-27T17:23:58.269Z,66.55
2023-11-27T17:26:59.836Z,66.89
2023-11-27T17:30:04.183Z,66.80
2023-11-27T17:33:06.797Z,67.02
2023-11-27T17:36:08.936Z,67.01
2023-11-27T17:39:10.497Z,67.39
2023-11-27T17:42:12.079Z,67.47
2023-11-27T17:45:21.633Z,67.25
2023-11-27T17:48:23.227Z,67.43
2023-11-27T17:51:24.956Z,67.61
2023-11-27T17:54:26.506Z,67.75
2023-11-27T17:57:31.407Z,67.76
2023-11-27T18:00:32.997Z,67.87
2023-11-27T18:03:34.570Z,67.80
2023-11-27T18:06:41.378Z,67.95
2023-11-27T18:09:43.009Z,67.73
2023-11-27T18:12:45.059Z,67.96
2023-11-27T18:15:47.086Z,67.98
2023-11-27T18:18:48.743Z,67.50
2023-11-27T18:21:50.293Z,67.75
2023-11-27T18:24:51.820Z,67.91
2023-11-27T18:27:56.716Z,67.87
2023-11-27T18:30:59.797Z,67.78
2023-11-27T18:34:01.821Z,67.84
2023-11-27T18:37:03.749Z,67.89
2023-11-27T18:40:09.713Z,67.92
2023-11-27T18:43:11.261Z,67.81
2023-11-27T18:46:15.071Z,67.55
2023-11-27T18:49:16.681Z,67.63
2023-11-27T18:52:18.302Z,67.81
2023-11-27T18:55:19.988Z,67.58
2023-11-27T18:58:21.698Z,67.59
2023-11-27T19:01:24.804Z,67.22
2023-11-27T19:04:27.913Z,67.09
2023-11-27T19:07:29.648Z,67.08
2023-11-27T19:10:31.588Z,67.19
2023-11-27T19:13:33.185Z,67.19
2023-11-27T19:16:35.292Z,67.10
2023-11-27T19:19:36.984Z,67.03
2023-11-27T19:22:39.708Z,67.56
2023-11-27T19:25:41.377Z,67.33
2023-11-27T19:28:43.444Z,67.31
2023-11-27T19:31:45.023Z,67.19
2023-11-27T19:34:47.854Z,66.85
2023-11-27T19:37:49.534Z,67.26
2023-11-27T19:40:51.419Z,67.35
2023-11-27T19:43:53.111Z,67.27
2023-11-27T19:46:57.582Z,67.12
2023-11-27T19:50:00.125Z,67.28
2023-11-27T19:53:02.204Z,67.64
2023-11-27T19:56:04.860Z,67.74
2023-11-27T19:59:07.389Z,67.90
2023-11-27T20:02:09.125Z,68.03
2023-11-27T20:05:10.848Z,68.32
2023-11-27T20:08:13.037Z,68.37
2023-11-27T20:11:15.904Z,68.13
2023-11-27T20:14:17.499Z,68.30
2023-11-27T20:17:21.192Z,68.51
2023-11-27T20:20:22.849Z,68.65
2023-11-27T20:23:25.220Z,68.60
2023-11-27T20:26:28.901Z,68.75
2023-11-27T20:29:30.552Z,68.61
2023-11-27T20:32:34.252Z,68.64
2023-11-27T20:35:36.026Z,69.03
2023-11-27T20:38:37.628Z,68.86
2023-11-27T20:41:42.152Z,68.68
2023-11-27T20:44:51.118Z,68.15
2023-11-27T20:47:57.309Z,68.68
2023-11-27T20:50:59.244Z,68.65
2023-11-27T20:54:04.597Z,68.50
2023-11-27T20:57:09.033Z,67.88
2023-11-27T21:00:12.294Z,68.19
2023-11-27T21:03:17.495Z,68.34
2023-11-27T21:06:21.855Z,68.28
2023-11-27T21:09:24.781Z,68.28
2023-11-27T21:12:26.349Z,68.14
2023-11-27T21:15:27.947Z,67.82
2023-11-27T21:18:29.581Z,67.90
2023-11-27T21:21:32.608Z,67.87
2023-11-27T21:24:34.571Z,67.86
2023-11-27T21:27:36.202Z,67.79
2023-11-27T21:30:38.668Z,67.82
2023-11-27T21:33:40.422Z,67.76
2023-11-27T21:36:42.211Z,67.65
2023-11-27T21:39:43.759Z,67.77
2023-11-27T21:42:45.387Z,67.66
2023-11-27T21:45:46.949Z,67.34
2023-11-27T21:48:48.564Z,67.53
2023-11-27T21:51:50.466Z,67.53
2023-11-27T21:54:53.023Z,67.43
2023-11-27T21:57:54.571Z,67.26
2023-11-27T22:00:56.169Z,67.37
2023-11-27T22:03:58.087Z,67.49
2023-11-27T22:06:59.653Z,67.53
2023-11-27T22:10:01.313Z,67.39
2023-11-27T22:13:02.969Z,67.33
2023-11-27T22:16:05.549Z,67.27
2023-11-27T22:19:07.150Z,67.36
2023-11-27T22:22:08.814Z,67.27
2023-11-27T22:25:11.652Z,67.17
2023-11-27T22:28:13.375Z,67.24
2023-11-27T22:31:22.102Z,67.21
2023-11-27T22:34:24.027Z,67.20
2023-11-27T22:37:25.645Z,67.00
2023-11-27T22:40:27.431Z,67.25
2023-11-27T22:43:29.079Z,67.15
2023-11-27T22:46:31.278Z,67.13
2023-11-27T22:49:32.890Z,67.40
2023-11-27T22:52:34.892Z,67.23
2023-11-27T22:55:36.717Z,67.14
2023-11-27T22:58:38.317Z,67.03
2023-11-27T23:01:40.003Z,67.47
2023-11-27T23:04:42.051Z,67.06
2023-11-27T23:07:44.011Z,67.14
2023-11-27T23:10:45.711Z,67.18
2023-11-27T23:13:47.477Z,67.21
2023-11-27T23:16:49.139Z,67.25
2023-11-27T23:19:52.250Z,67.20
2023-11-27T23:22:54.070Z,67.19
2023-11-27T23:25:55.683Z,67.07
2023-11-27T23:28:57.310Z,67.18
2023-11-27T23:32:00.293Z,67.23
2023-11-27T23:35:03.604Z,67.07
2023-11-27T23:38:05.196Z,67.03
2023-11-27T23:41:07.984Z,67.17
2023-11-27T23:44:09.557Z,67.18
2023-11-27T23:47:11.251Z,66.88
2023-11-27T23:50:12.887Z,67.16
2023-11-27T23:53:14.537Z,67.12
2023-11-27T23:56:16.268Z,67.18
2023-11-27T23:59:18.194Z,67.07
